sensor_id;sensor_type;location;lat;lon;timestamp;pressure;altitude;pressure_sealevel;temperature;humidity
19676;BME280;39539;52.202;9.876;2024-02-26T00:01:36;99412.66;;;1.58;100.00
19676;BME280;39539;52.202;9.876;2024-02-26T00:04:02;99406.53;;;1.51;100.00
19676;BME280;39539;52.202;9.876;2024-02-26T00:06:29;99405.63;;;1.44;100.00
19676;BME280;39539;52.202;9.876;2024-02-26T00:08:54;99409.03;;;1.44;100.00
19676;BME280;39539;52.202;9.876;2024-02-26T00:11:19;99412.84;;;1.42;100.00
19676;BME280;39539;52.202;9.876;2024-02-26T00:13:45;99399.28;;;1.23;100.00
19676;BME280;39539;52.202;9.876;2024-02-26T00:16:10;99409.97;;;1.37;100.00
19676;BME280;39539;52.202;9.876;2024-02-26T00:18:35;99423.31;;;1.42;100.00
19676;BME280;39539;52.202;9.876;2024-02-26T00:21:02;99418.41;;;1.39;100.00
19676;BME280;39539;52.202;9.876;2024-02-26T00:23:27;99418.97;;;1.34;100.00
19676;BME280;39539;52.202;9.876;2024-02-26T00:25:52;99401.81;;;1.31;100.00
19676;BME280;39539;52.202;9.876;2024-02-26T00:28:18;99416.81;;;1.38;100.00
19676;BME280;39539;52.202;9.876;2024-02-26T00:30:45;99416.44;;;1.41;100.00
19676;BME280;39539;52.202;9.876;2024-02-26T00:33:10;99395.50;;;1.26;100.00
19676;BME280;39539;52.202;9.876;2024-02-26T00:35:36;99417.81;;;1.37;100.00
19676;BME280;39539;52.202;9.876;2024-02-26T00:38:01;99397.66;;;1.22;100.00
19676;BME280;39539;52.202;9.876;2024-02-26T00:40:28;99413.75;;;1.34;100.00
19676;BME280;39539;52.202;9.876;2024-02-26T00:42:53;99387.53;;;1.19;100.00
19676;BME280;39539;52.202;9.876;2024-02-26T00:45:19;99408.88;;;1.31;100.00
19676;BME280;39539;52.202;9.876;2024-02-26T00:47:44;99408.13;;;1.22;100.00
19676;BME280;39539;52.202;9.876;2024-02-26T00:50:12;99413.00;;;1.25;100.00
19676;BME280;39539;52.202;9.876;2024-02-26T00:52:37;99414.72;;;1.33;100.00
19676;BME280;39539;52.202;9.876;2024-02-26T00:55:03;99412.13;;;1.48;100.00
19676;BME280;39539;52.202;9.876;2024-02-26T00:57:28;99421.63;;;1.64;100.00
19676;BME280;39539;52.202;9.876;2024-02-26T00:59:54;99421.16;;;1.75;100.00
19676;BME280;39539;52.202;9.876;2024-02-26T01:02:21;99431.38;;;1.85;100.00
19676;BME280;39539;52.202;9.876;2024-02-26T01:04:47;99430.47;;;1.92;100.00
19676;BME280;39539;52.202;9.876;2024-02-26T01:07:12;99422.81;;;1.91;100.00
19676;BME280;39539;52.202;9.876;2024-02-26T01:09:37;99415.66;;;1.85;100.00
19676;BME280;39539;52.202;9.876;2024-02-26T01:12:03;99419.56;;;1.74;100.00
19676;BME280;39539;52.202;9.876;2024-02-26T01:14:29;99436.72;;;1.76;100.00
19676;BME280;39539;52.202;9.876;2024-02-26T01:16:55;99416.50;;;1.70;100.00
19676;BME280;39539;52.202;9.876;2024-02-26T01:19:21;99431.47;;;1.91;100.00
19676;BME280;39539;52.202;9.876;2024-02-26T01:21:46;99430.31;;;1.94;100.00
19676;BME280;39539;52.202;9.876;2024-02-26T01:24:12;99424.63;;;1.90;100.00
19676;BME280;39539;52.202;9.876;2024-02-26T01:26:37;99434.16;;;1.98;100.00
19676;BME280;39539;52.202;9.876;2024-02-26T01:29:02;99435.00;;;1.98;100.00
19676;BME280;39539;52.202;9.876;2024-02-26T01:31:28;99433.84;;;2.01;100.00
19676;BME280;39539;52.202;9.876;2024-02-26T01:33:53;99426.94;;;2.00;100.00
19676;BME280;39539;52.202;9.876;2024-02-26T01:36:18;99426.56;;;2.03;100.00
19676;BME280;39539;52.202;9.876;2024-02-26T01:38:44;99414.84;;;1.99;100.00
19676;BME280;39539;52.202;9.876;2024-02-26T01:41:09;99421.69;;;2.00;100.00
19676;BME280;39539;52.202;9.876;2024-02-26T01:43:34;99412.34;;;1.76;100.00
19676;BME280;39539;52.202;9.876;2024-02-26T01:46:00;99417.94;;;1.88;100.00
19676;BME280;39539;52.202;9.876;2024-02-26T01:48:25;99403.31;;;1.78;100.00
19676;BME280;39539;52.202;9.876;2024-02-26T01:50:51;99415.41;;;1.79;100.00
19676;BME280;39539;52.202;9.876;2024-02-26T01:53:18;99417.66;;;1.83;100.00
19676;BME280;39539;52.202;9.876;2024-02-26T01:55:44;99423.78;;;1.75;100.00
19676;BME280;39539;52.202;9.876;2024-02-26T01:58:09;99403.75;;;1.67;100.00
19676;BME280;39539;52.202;9.876;2024-02-26T02:00:35;99416.22;;;1.65;100.00
19676;BME280;39539;52.202;9.876;2024-02-26T02:03:03;99413.16;;;1.62;100.00
19676;BME280;39539;52.202;9.876;2024-02-26T02:05:29;99411.34;;;1.62;100.00
19676;BME280;39539;52.202;9.876;2024-02-26T02:07:55;99415.56;;;1.63;100.00
19676;BME280;39539;52.202;9.876;2024-02-26T02:10:21;99416.84;;;1.67;100.00
19676;BME280;39539;52.202;9.876;2024-02-26T02:12:50;99418.63;;;1.52;100.00
19676;BME280;39539;52.202;9.876;2024-02-26T02:15:16;99423.66;;;1.39;100.00
19676;BME280;39539;52.202;9.876;2024-02-26T02:17:41;99410.84;;;1.44;100.00
19676;BME280;39539;52.202;9.876;2024-02-26T02:20:15;99433.25;;;1.61;100.00
19676;BME280;39539;52.202;9.876;2024-02-26T02:22:46;99433.09;;;1.63;100.00
19676;BME280;39539;52.202;9.876;2024-02-26T02:25:12;99419.63;;;1.51;100.00
19676;BME280;39539;52.202;9.876;2024-02-26T02:27:39;99431.63;;;1.60;100.00
19676;BME280;39539;52.202;9.876;2024-02-26T02:30:06;99433.97;;;1.70;100.00
19676;BME280;39539;52.202;9.876;2024-02-26T02:32:31;99434.53;;;1.65;100.00
19676;BME280;39539;52.202;9.876;2024-02-26T02:34:57;99425.22;;;1.63;100.00
19676;BME280;39539;52.202;9.876;2024-02-26T02:37:24;99411.94;;;1.49;100.00
19676;BME280;39539;52.202;9.876;2024-02-26T02:39:49;99429.09;;;1.52;100.00
19676;BME280;39539;52.202;9.876;2024-02-26T02:42:15;99426.47;;;1.52;100.00
19676;BME280;39539;52.202;9.876;2024-02-26T02:44:40;99422.78;;;1.46;100.00
19676;BME280;39539;52.202;9.876;2024-02-26T02:47:06;99418.78;;;1.35;100.00
19676;BME280;39539;52.202;9.876;2024-02-26T02:49:31;99434.31;;;1.37;100.00
19676;BME280;39539;52.202;9.876;2024-02-26T02:51:56;99420.22;;;1.23;100.00
19676;BME280;39539;52.202;9.876;2024-02-26T02:54:23;99440.44;;;1.29;100.00
19676;BME280;39539;52.202;9.876;2024-02-26T02:56:48;99439.78;;;1.27;100.00
19676;BME280;39539;52.202;9.876;2024-02-26T02:59:13;99435.84;;;1.31;100.00
19676;BME280;39539;52.202;9.876;2024-02-26T03:01:39;99437.16;;;1.27;100.00
19676;BME280;39539;52.202;9.876;2024-02-26T03:04:04;99428.06;;;1.23;100.00
19676;BME280;39539;52.202;9.876;2024-02-26T03:06:29;99438.81;;;1.28;100.00
19676;BME280;39539;52.202;9.876;2024-02-26T03:08:55;99445.53;;;1.46;100.00
19676;BME280;39539;52.202;9.876;2024-02-26T03:11:21;99438.31;;;1.48;100.00
19676;BME280;39539;52.202;9.876;2024-02-26T03:13:47;99452.94;;;1.57;100.00
19676;BME280;39539;52.202;9.876;2024-02-26T03:16:12;99459.44;;;1.61;100.00
19676;BME280;39539;52.202;9.876;2024-02-26T03:18:40;99463.16;;;1.67;100.00
19676;BME280;39539;52.202;9.876;2024-02-26T03:21:06;99463.78;;;1.69;100.00
19676;BME280;39539;52.202;9.876;2024-02-26T03:23:32;99449.53;;;1.71;100.00
19676;BME280;39539;52.202;9.876;2024-02-26T03:26:01;99447.63;;;1.65;100.00
19676;BME280;39539;52.202;9.876;2024-02-26T03:28:28;99456.38;;;1.72;100.00
19676;BME280;39539;52.202;9.876;2024-02-26T03:30:56;99459.00;;;1.72;100.00
19676;BME280;39539;52.202;9.876;2024-02-26T03:33:21;99464.88;;;1.74;100.00
19676;BME280;39539;52.202;9.876;2024-02-26T03:35:46;99448.28;;;1.67;100.00
19676;BME280;39539;52.202;9.876;2024-02-26T03:38:13;99459.28;;;1.77;100.00
19676;BME280;39539;52.202;9.876;2024-02-26T03:40:38;99442.56;;;1.64;100.00
19676;BME280;39539;52.202;9.876;2024-02-26T03:43:05;99456.75;;;1.69;100.00
19676;BME280;39539;52.202;9.876;2024-02-26T03:45:32;99452.78;;;1.73;100.00
19676;BME280;39539;52.202;9.876;2024-02-26T03:47:57;99453.16;;;1.70;100.00
19676;BME280;39539;52.202;9.876;2024-02-26T03:50:23;99447.00;;;1.63;100.00
19676;BME280;39539;52.202;9.876;2024-02-26T03:52:48;99453.75;;;1.72;100.00
19676;BME280;39539;52.202;9.876;2024-02-26T03:55:15;99450.78;;;1.75;100.00
19676;BME280;39539;52.202;9.876;2024-02-26T03:57:40;99456.59;;;1.86;100.00
19676;BME280;39539;52.202;9.876;2024-02-26T04:00:06;99442.84;;;1.84;100.00
19676;BME280;39539;52.202;9.876;2024-02-26T04:02:31;99449.00;;;1.91;100.00
19676;BME280;39539;52.202;9.876;2024-02-26T04:04:58;99454.31;;;1.97;100.00
19676;BME280;39539;52.202;9.876;2024-02-26T04:07:24;99459.66;;;2.04;100.00
19676;BME280;39539;52.202;9.876;2024-02-26T04:09:49;99457.41;;;2.16;100.00
19676;BME280;39539;52.202;9.876;2024-02-26T04:12:15;99471.38;;;2.23;100.00
19676;BME280;39539;52.202;9.876;2024-02-26T04:14:40;99456.13;;;2.12;100.00
19676;BME280;39539;52.202;9.876;2024-02-26T04:17:05;99474.13;;;2.30;100.00
19676;BME280;39539;52.202;9.876;2024-02-26T04:19:31;99469.69;;;2.30;100.00
19676;BME280;39539;52.202;9.876;2024-02-26T04:21:56;99446.44;;;2.12;100.00
19676;BME280;39539;52.202;9.876;2024-02-26T04:24:21;99467.78;;;2.09;100.00
19676;BME280;39539;52.202;9.876;2024-02-26T04:26:47;99466.53;;;2.05;100.00
19676;BME280;39539;52.202;9.876;2024-02-26T04:29:14;99474.75;;;2.02;100.00
19676;BME280;39539;52.202;9.876;2024-02-26T04:31:40;99471.84;;;1.82;100.00
19676;BME280;39539;52.202;9.876;2024-02-26T04:34:07;99477.91;;;1.83;100.00
19676;BME280;39539;52.202;9.876;2024-02-26T04:36:33;99480.09;;;1.94;100.00
19676;BME280;39539;52.202;9.876;2024-02-26T04:38:58;99486.25;;;2.01;100.00
19676;BME280;39539;52.202;9.876;2024-02-26T04:41:23;99494.81;;;2.10;100.00
19676;BME280;39539;52.202;9.876;2024-02-26T04:43:49;99496.88;;;2.14;100.00
19676;BME280;39539;52.202;9.876;2024-02-26T04:46:14;99491.66;;;2.14;100.00
19676;BME280;39539;52.202;9.876;2024-02-26T04:48:40;99506.75;;;2.27;100.00
19676;BME280;39539;52.202;9.876;2024-02-26T04:51:07;99512.88;;;2.34;100.00
19676;BME280;39539;52.202;9.876;2024-02-26T04:53:34;99532.41;;;2.46;100.00
19676;BME280;39539;52.202;9.876;2024-02-26T04:55:59;99514.97;;;2.39;100.00
19676;BME280;39539;52.202;9.876;2024-02-26T04:58:24;99528.41;;;2.51;100.00
19676;BME280;39539;52.202;9.876;2024-02-26T05:00:50;99515.84;;;2.46;100.00
19676;BME280;39539;52.202;9.876;2024-02-26T05:03:15;99503.31;;;2.41;100.00
19676;BME280;39539;52.202;9.876;2024-02-26T05:05:44;99523.63;;;2.54;100.00
19676;BME280;39539;52.202;9.876;2024-02-26T05:08:09;99523.84;;;2.38;100.00
19676;BME280;39539;52.202;9.876;2024-02-26T05:10:35;99500.06;;;2.10;100.00
19676;BME280;39539;52.202;9.876;2024-02-26T05:13:04;99508.91;;;1.79;100.00
19676;BME280;39539;52.202;9.876;2024-02-26T05:15:30;99506.22;;;1.64;100.00
19676;BME280;39539;52.202;9.876;2024-02-26T05:17:55;99517.28;;;1.74;100.00
19676;BME280;39539;52.202;9.876;2024-02-26T05:20:20;99513.78;;;1.82;100.00
19676;BME280;39539;52.202;9.876;2024-02-26T05:22:46;99517.84;;;1.85;100.00
19676;BME280;39539;52.202;9.876;2024-02-26T05:25:14;99521.06;;;1.87;100.00
19676;BME280;39539;52.202;9.876;2024-02-26T05:27:40;99508.25;;;1.77;100.00
19676;BME280;39539;52.202;9.876;2024-02-26T05:30:06;99528.50;;;1.98;100.00
19676;BME280;39539;52.202;9.876;2024-02-26T05:32:31;99532.69;;;2.07;100.00
19676;BME280;39539;52.202;9.876;2024-02-26T05:34:56;99535.91;;;2.09;100.00
19676;BME280;39539;52.202;9.876;2024-02-26T05:37:22;99537.84;;;2.15;100.00
19676;BME280;39539;52.202;9.876;2024-02-26T05:39:47;99545.34;;;2.18;100.00
19676;BME280;39539;52.202;9.876;2024-02-26T05:42:13;99546.31;;;2.17;100.00
19676;BME280;39539;52.202;9.876;2024-02-26T05:44:39;99529.34;;;2.13;100.00
19676;BME280;39539;52.202;9.876;2024-02-26T05:47:04;99523.47;;;2.11;100.00
19676;BME280;39539;52.202;9.876;2024-02-26T05:49:30;99538.09;;;2.20;100.00
19676;BME280;39539;52.202;9.876;2024-02-26T05:51:55;99538.00;;;2.14;100.00
19676;BME280;39539;52.202;9.876;2024-02-26T05:54:23;99521.72;;;2.03;100.00
19676;BME280;39539;52.202;9.876;2024-02-26T05:56:48;99540.56;;;2.07;100.00
19676;BME280;39539;52.202;9.876;2024-02-26T05:59:15;99536.75;;;2.10;100.00
19676;BME280;39539;52.202;9.876;2024-02-26T06:01:41;99544.63;;;2.10;100.00
19676;BME280;39539;52.202;9.876;2024-02-26T06:04:06;99531.41;;;2.03;100.00
19676;BME280;39539;52.202;9.876;2024-02-26T06:06:33;99552.75;;;2.15;100.00
19676;BME280;39539;52.202;9.876;2024-02-26T06:08:58;99554.53;;;2.14;100.00
19676;BME280;39539;52.202;9.876;2024-02-26T06:11:24;99552.81;;;2.07;100.00
19676;BME280;39539;52.202;9.876;2024-02-26T06:13:49;99552.19;;;2.05;100.00
19676;BME280;39539;52.202;9.876;2024-02-26T06:16:16;99563.94;;;2.09;100.00
19676;BME280;39539;52.202;9.876;2024-02-26T06:18:43;99560.59;;;2.00;100.00
19676;BME280;39539;52.202;9.876;2024-02-26T06:21:09;99564.50;;;2.04;100.00
19676;BME280;39539;52.202;9.876;2024-02-26T06:23:35;99569.47;;;1.99;100.00
19676;BME280;39539;52.202;9.876;2024-02-26T06:26:01;99588.69;;;2.06;100.00
19676;BME280;39539;52.202;9.876;2024-02-26T06:28:26;99585.34;;;2.12;100.00
19676;BME280;39539;52.202;9.876;2024-02-26T06:30:55;99598.38;;;2.20;100.00
19676;BME280;39539;52.202;9.876;2024-02-26T06:33:20;99580.22;;;2.19;100.00
19676;BME280;39539;52.202;9.876;2024-02-26T06:35:46;99588.09;;;2.34;100.00
19676;BME280;39539;52.202;9.876;2024-02-26T06:38:11;99591.66;;;2.41;100.00
19676;BME280;39539;52.202;9.876;2024-02-26T06:40:38;99599.41;;;2.49;100.00
19676;BME280;39539;52.202;9.876;2024-02-26T06:43:04;99615.69;;;2.59;100.00
19676;BME280;39539;52.202;9.876;2024-02-26T06:45:29;99604.94;;;2.39;100.00
19676;BME280;39539;52.202;9.876;2024-02-26T06:47:54;99628.16;;;2.57;100.00
19676;BME280;39539;52.202;9.876;2024-02-26T06:50:21;99635.69;;;2.75;100.00
19676;BME280;39539;52.202;9.876;2024-02-26T06:52:47;99629.09;;;2.64;100.00
19676;BME280;39539;52.202;9.876;2024-02-26T06:55:13;99641.47;;;2.70;100.00
19676;BME280;39539;52.202;9.876;2024-02-26T06:57:38;99631.06;;;2.77;100.00
19676;BME280;39539;52.202;9.876;2024-02-26T07:00:04;99643.84;;;2.80;100.00
19676;BME280;39539;52.202;9.876;2024-02-26T07:02:30;99641.91;;;2.74;100.00
19676;BME280;39539;52.202;9.876;2024-02-26T07:04:57;99647.38;;;2.73;100.00
19676;BME280;39539;52.202;9.876;2024-02-26T07:07:24;99636.78;;;2.81;100.00
19676;BME280;39539;52.202;9.876;2024-02-26T07:09:51;99641.38;;;2.79;100.00
19676;BME280;39539;52.202;9.876;2024-02-26T07:12:16;99660.81;;;2.99;100.00
19676;BME280;39539;52.202;9.876;2024-02-26T07:14:42;99650.59;;;3.04;100.00
19676;BME280;39539;52.202;9.876;2024-02-26T07:17:08;99662.16;;;3.25;100.00
19676;BME280;39539;52.202;9.876;2024-02-26T07:19:34;99660.16;;;3.27;100.00
19676;BME280;39539;52.202;9.876;2024-02-26T07:22:00;99662.03;;;3.33;100.00
19676;BME280;39539;52.202;9.876;2024-02-26T07:24:27;99657.22;;;3.36;100.00
19676;BME280;39539;52.202;9.876;2024-02-26T07:26:56;99645.66;;;3.31;100.00
19676;BME280;39539;52.202;9.876;2024-02-26T07:29:21;99650.84;;;3.24;100.00
19676;BME280;39539;52.202;9.876;2024-02-26T07:31:47;99662.19;;;3.46;100.00
19676;BME280;39539;52.202;9.876;2024-02-26T07:34:12;99638.47;;;3.40;100.00
19676;BME280;39539;52.202;9.876;2024-02-26T07:36:38;99634.06;;;3.40;100.00
19676;BME280;39539;52.202;9.876;2024-02-26T07:39:04;99664.06;;;3.52;100.00
19676;BME280;39539;52.202;9.876;2024-02-26T07:41:29;99656.69;;;3.41;100.00
19676;BME280;39539;52.202;9.876;2024-02-26T07:43:54;99642.59;;;3.27;100.00
19676;BME280;39539;52.202;9.876;2024-02-26T07:46:23;99653.50;;;3.46;100.00
19676;BME280;39539;52.202;9.876;2024-02-26T07:48:48;99655.28;;;3.60;100.00
19676;BME280;39539;52.202;9.876;2024-02-26T07:51:14;99646.22;;;3.63;100.00
19676;BME280;39539;52.202;9.876;2024-02-26T07:53:41;99660.66;;;3.73;100.00
19676;BME280;39539;52.202;9.876;2024-02-26T07:56:06;99651.78;;;3.74;100.00
19676;BME280;39539;52.202;9.876;2024-02-26T07:58:32;99640.19;;;3.69;100.00
19676;BME280;39539;52.202;9.876;2024-02-26T08:01:00;99653.09;;;3.85;100.00
19676;BME280;39539;52.202;9.876;2024-02-26T08:03:25;99644.97;;;3.80;100.00
19676;BME280;39539;52.202;9.876;2024-02-26T08:05:51;99629.22;;;3.65;100.00
19676;BME280;39539;52.202;9.876;2024-02-26T08:08:18;99652.22;;;3.78;100.00
19676;BME280;39539;52.202;9.876;2024-02-26T08:10:43;99661.97;;;3.84;100.00
19676;BME280;39539;52.202;9.876;2024-02-26T08:13:12;99657.59;;;3.91;100.00
19676;BME280;39539;52.202;9.876;2024-02-26T08:15:37;99651.72;;;3.89;100.00
19676;BME280;39539;52.202;9.876;2024-02-26T08:18:03;99651.59;;;3.97;100.00
19676;BME280;39539;52.202;9.876;2024-02-26T08:20:29;99660.22;;;3.91;100.00
19676;BME280;39539;52.202;9.876;2024-02-26T08:22:55;99648.56;;;3.79;100.00
19676;BME280;39539;52.202;9.876;2024-02-26T08:25:21;99633.19;;;3.76;100.00
19676;BME280;39539;52.202;9.876;2024-02-26T08:27:47;99651.06;;;3.87;100.00
19676;BME280;39539;52.202;9.876;2024-02-26T08:30:14;99640.81;;;3.71;100.00
19676;BME280;39539;52.202;9.876;2024-02-26T08:32:43;99658.22;;;3.72;100.00
19676;BME280;39539;52.202;9.876;2024-02-26T08:35:08;99647.59;;;3.80;100.00
19676;BME280;39539;52.202;9.876;2024-02-26T08:37:34;99655.56;;;3.93;100.00
19676;BME280;39539;52.202;9.876;2024-02-26T08:39:59;99635.25;;;3.80;100.00
19676;BME280;39539;52.202;9.876;2024-02-26T08:42:24;99647.44;;;4.10;100.00
19676;BME280;39539;52.202;9.876;2024-02-26T08:44:50;99629.44;;;3.85;100.00
19676;BME280;39539;52.202;9.876;2024-02-26T08:47:15;99640.31;;;4.03;100.00
19676;BME280;39539;52.202;9.876;2024-02-26T08:49:45;99633.47;;;4.09;100.00
19676;BME280;39539;52.202;9.876;2024-02-26T08:52:11;99652.03;;;4.29;100.00
19676;BME280;39539;52.202;9.876;2024-02-26T08:54:36;99656.38;;;4.43;100.00
19676;BME280;39539;52.202;9.876;2024-02-26T08:57:02;99661.97;;;4.62;100.00
19676;BME280;39539;52.202;9.876;2024-02-26T08:59:28;99659.81;;;4.72;100.00
19676;BME280;39539;52.202;9.876;2024-02-26T09:01:54;99649.47;;;4.70;100.00
19676;BME280;39539;52.202;9.876;2024-02-26T09:04:19;99646.50;;;4.80;100.00
19676;BME280;39539;52.202;9.876;2024-02-26T09:06:45;99650.16;;;4.86;100.00
19676;BME280;39539;52.202;9.876;2024-02-26T09:09:10;99655.13;;;5.09;100.00
19676;BME280;39539;52.202;9.876;2024-02-26T09:11:39;99662.91;;;5.24;100.00
19676;BME280;39539;52.202;9.876;2024-02-26T09:14:04;99643.22;;;5.13;100.00
19676;BME280;39539;52.202;9.876;2024-02-26T09:16:30;99661.28;;;5.23;100.00
19676;BME280;39539;52.202;9.876;2024-02-26T09:18:56;99635.97;;;4.80;100.00
19676;BME280;39539;52.202;9.876;2024-02-26T09:21:22;99652.00;;;4.85;100.00
19676;BME280;39539;52.202;9.876;2024-02-26T09:23:52;99645.31;;;4.89;100.00
19676;BME280;39539;52.202;9.876;2024-02-26T09:26:18;99652.25;;;4.97;100.00
19676;BME280;39539;52.202;9.876;2024-02-26T09:28:44;99659.19;;;5.05;100.00
19676;BME280;39539;52.202;9.876;2024-02-26T09:31:11;99657.75;;;5.09;100.00
19676;BME280;39539;52.202;9.876;2024-02-26T09:33:36;99660.47;;;5.22;100.00
19676;BME280;39539;52.202;9.876;2024-02-26T09:36:04;99665.97;;;5.27;100.00
19676;BME280;39539;52.202;9.876;2024-02-26T09:38:32;99655.66;;;5.32;100.00
19676;BME280;39539;52.202;9.876;2024-02-26T09:41:02;99671.94;;;5.56;100.00
19676;BME280;39539;52.202;9.876;2024-02-26T09:43:34;99671.56;;;5.72;100.00
19676;BME280;39539;52.202;9.876;2024-02-26T09:46:00;99669.13;;;5.77;99.59
19676;BME280;39539;52.202;9.876;2024-02-26T09:48:25;99681.56;;;5.97;99.00
19676;BME280;39539;52.202;9.876;2024-02-26T09:50:51;99694.75;;;6.17;94.59
19676;BME280;39539;52.202;9.876;2024-02-26T09:53:18;99680.16;;;6.14;91.93
19676;BME280;39539;52.202;9.876;2024-02-26T09:55:44;99683.81;;;6.13;91.62
19676;BME280;39539;52.202;9.876;2024-02-26T09:58:11;99691.72;;;6.13;92.05
19676;BME280;39539;52.202;9.876;2024-02-26T10:00:46;99695.56;;;6.11;93.36
19676;BME280;39539;52.202;9.876;2024-02-26T10:03:18;99688.41;;;5.84;94.92
19676;BME280;39539;52.202;9.876;2024-02-26T10:05:46;99704.84;;;5.87;96.31
19676;BME280;39539;52.202;9.876;2024-02-26T10:08:15;99694.91;;;5.89;96.04
19676;BME280;39539;52.202;9.876;2024-02-26T10:10:43;99694.66;;;5.63;97.24
19676;BME280;39539;52.202;9.876;2024-02-26T10:13:09;99681.09;;;5.80;97.37
19676;BME280;39539;52.202;9.876;2024-02-26T10:15:36;99708.09;;;5.82;97.16
19676;BME280;39539;52.202;9.876;2024-02-26T10:18:06;99707.56;;;6.06;98.02
19676;BME280;39539;52.202;9.876;2024-02-26T10:20:32;99717.94;;;6.35;93.00
19676;BME280;39539;52.202;9.876;2024-02-26T10:22:58;99706.53;;;6.07;93.19
19676;BME280;39539;52.202;9.876;2024-02-26T10:25:24;99693.50;;;5.93;92.35
19676;BME280;39539;52.202;9.876;2024-02-26T10:27:50;99708.56;;;6.25;90.15
19676;BME280;39539;52.202;9.876;2024-02-26T10:30:17;99713.84;;;6.12;91.13
19676;BME280;39539;52.202;9.876;2024-02-26T10:32:46;99709.56;;;5.98;91.50
19676;BME280;39539;52.202;9.876;2024-02-26T10:35:14;99700.63;;;5.99;91.99
19676;BME280;39539;52.202;9.876;2024-02-26T10:37:41;99698.00;;;5.99;92.46
19676;BME280;39539;52.202;9.876;2024-02-26T10:40:10;99704.91;;;6.13;94.96
19676;BME280;39539;52.202;9.876;2024-02-26T10:42:36;99712.66;;;6.15;92.21
19676;BME280;39539;52.202;9.876;2024-02-26T10:45:01;99707.78;;;6.18;90.86
19676;BME280;39539;52.202;9.876;2024-02-26T10:47:28;99698.84;;;6.13;93.37
19676;BME280;39539;52.202;9.876;2024-02-26T10:49:54;99711.63;;;6.36;92.71
19676;BME280;39539;52.202;9.876;2024-02-26T10:52:22;99698.44;;;6.36;94.35
19676;BME280;39539;52.202;9.876;2024-02-26T10:54:53;99679.97;;;6.29;95.14
19676;BME280;39539;52.202;9.876;2024-02-26T10:57:19;99700.03;;;6.57;94.76
19676;BME280;39539;52.202;9.876;2024-02-26T10:59:48;99685.03;;;6.64;93.01
19676;BME280;39539;52.202;9.876;2024-02-26T11:02:14;99692.72;;;6.72;92.92
19676;BME280;39539;52.202;9.876;2024-02-26T11:04:40;99681.56;;;6.70;92.86
19676;BME280;39539;52.202;9.876;2024-02-26T11:07:08;99684.19;;;6.77;92.46
19676;BME280;39539;52.202;9.876;2024-02-26T11:09:35;99680.13;;;6.67;92.42
19676;BME280;39539;52.202;9.876;2024-02-26T11:12:02;99697.34;;;6.96;91.08
19676;BME280;39539;52.202;9.876;2024-02-26T11:14:29;99687.59;;;6.97;90.76
19676;BME280;39539;52.202;9.876;2024-02-26T11:16:55;99685.41;;;6.67;91.43
19676;BME280;39539;52.202;9.876;2024-02-26T11:19:24;99683.19;;;6.51;93.00
19676;BME280;39539;52.202;9.876;2024-02-26T11:21:50;99679.34;;;6.60;92.13
19676;BME280;39539;52.202;9.876;2024-02-26T11:24:16;99685.63;;;6.59;93.48
19676;BME280;39539;52.202;9.876;2024-02-26T11:26:52;99707.91;;;7.03;91.67
19676;BME280;39539;52.202;9.876;2024-02-26T11:29:26;99705.63;;;7.20;89.80
19676;BME280;39539;52.202;9.876;2024-02-26T11:31:53;99713.75;;;7.18;88.71
19676;BME280;39539;52.202;9.876;2024-02-26T11:34:18;99713.25;;;7.41;87.90
19676;BME280;39539;52.202;9.876;2024-02-26T11:36:46;99717.31;;;7.44;86.86
19676;BME280;39539;52.202;9.876;2024-02-26T11:39:14;99730.91;;;7.54;85.52
19676;BME280;39539;52.202;9.876;2024-02-26T11:41:42;99717.59;;;7.23;87.39
19676;BME280;39539;52.202;9.876;2024-02-26T11:44:08;99707.22;;;7.28;86.81
19676;BME280;39539;52.202;9.876;2024-02-26T11:46:43;99714.50;;;7.32;88.52
19676;BME280;39539;52.202;9.876;2024-02-26T11:51:54;99711.75;;;7.01;90.11
19676;BME280;39539;52.202;9.876;2024-02-26T11:57:28;99697.53;;;7.08;90.97
19676;BME280;39539;52.202;9.876;2024-02-26T12:00:11;99696.53;;;6.96;92.91
19676;BME280;39539;52.202;9.876;2024-02-26T12:02:49;99691.84;;;6.98;91.12
19676;BME280;39539;52.202;9.876;2024-02-26T12:05:20;99706.91;;;6.91;92.32
19676;BME280;39539;52.202;9.876;2024-02-26T12:07:59;99706.03;;;7.10;92.60
19676;BME280;39539;52.202;9.876;2024-02-26T12:10:40;99706.41;;;7.20;91.89
19676;BME280;39539;52.202;9.876;2024-02-26T12:13:17;99708.47;;;7.63;89.72
19676;BME280;39539;52.202;9.876;2024-02-26T12:15:57;99716.78;;;7.74;88.14
19676;BME280;39539;52.202;9.876;2024-02-26T12:18:26;99728.28;;;7.48;89.35
19676;BME280;39539;52.202;9.876;2024-02-26T12:21:03;99725.72;;;7.73;89.63
19676;BME280;39539;52.202;9.876;2024-02-26T12:23:29;99721.28;;;7.67;86.31
19676;BME280;39539;52.202;9.876;2024-02-26T12:26:02;99725.31;;;7.76;88.05
19676;BME280;39539;52.202;9.876;2024-02-26T12:28:31;99733.44;;;8.13;85.29
19676;BME280;39539;52.202;9.876;2024-02-26T12:30:56;99730.28;;;7.97;86.72
19676;BME280;39539;52.202;9.876;2024-02-26T12:33:25;99726.34;;;8.06;85.42
19676;BME280;39539;52.202;9.876;2024-02-26T12:35:52;99726.88;;;7.90;85.68
19676;BME280;39539;52.202;9.876;2024-02-26T12:38:18;99721.16;;;7.93;85.55
19676;BME280;39539;52.202;9.876;2024-02-26T12:40:44;99724.28;;;8.08;85.95
19676;BME280;39539;52.202;9.876;2024-02-26T12:43:10;99722.81;;;7.87;85.46
19676;BME280;39539;52.202;9.876;2024-02-26T12:45:41;99716.34;;;7.77;86.74
19676;BME280;39539;52.202;9.876;2024-02-26T12:48:07;99730.81;;;8.06;87.51
19676;BME280;39539;52.202;9.876;2024-02-26T12:50:33;99731.19;;;8.09;87.53
19676;BME280;39539;52.202;9.876;2024-02-26T12:53:00;99718.41;;;8.38;86.43
19676;BME280;39539;52.202;9.876;2024-02-26T12:55:26;99726.91;;;8.47;85.21
19676;BME280;39539;52.202;9.876;2024-02-26T12:57:52;99727.91;;;8.71;83.77
19676;BME280;39539;52.202;9.876;2024-02-26T13:00:21;99732.47;;;8.64;83.30
19676;BME280;39539;52.202;9.876;2024-02-26T13:02:47;99727.34;;;8.37;83.65
19676;BME280;39539;52.202;9.876;2024-02-26T13:05:14;99718.38;;;7.81;85.30